Time;durP1;ratioP1;P1;durP2;ratioP2;P2;SDS_P1;SDS_P2;PMS_P1;PMS_P2;Temp;Humidity;BMP_temperature;BMP_pressure;BME280_temperature;BME280_humidity;BME280_pressure;Samples;Min_cycle;Max_cycle;Signal;HPM_P1;HPM_P2
2021/08/06 00:00:56;;;;;;;8.50;4.22;;;;;;;-145.71;100.00;60690.53;5011765;28;20588;-84
2021/08/06 00:03:22;;;;;;;9.15;4.50;;;;;;;-145.71;100.00;60690.53;5010148;28;20433;-83
2021/08/06 00:05:47;;;;;;;7.22;4.22;;;;;;;-145.71;100.00;60690.53;4992612;28;20025;-82
2021/08/06 00:08:13;;;;;;;9.20;4.43;;;;;;;-145.71;100.00;60690.53;5010891;28;20055;-83
2021/08/06 00:10:40;;;;;;;9.18;5.03;;;;;;;-145.71;100.00;60690.53;5010695;28;20038;-83
2021/08/06 00:13:06;;;;;;;5.57;4.30;;;;;;;-145.71;100.00;60690.53;5010943;28;20044;-83
2021/08/06 00:15:31;;;;;;;10.48;4.75;;;;;;;-145.71;100.00;60690.53;5012164;28;20030;-83
2021/08/06 00:17:57;;;;;;;9.20;4.80;;;;;;;-145.71;100.00;60690.53;5011168;28;20040;-83
2021/08/06 00:20:22;;;;;;;7.82;4.50;;;;;;;-145.71;100.00;60690.53;5010904;28;20504;-83
2021/08/06 00:22:48;;;;;;;9.18;4.53;;;;;;;-145.71;100.00;60690.53;5010590;28;20623;-83
2021/08/06 00:25:13;;;;;;;7.47;4.05;;;;;;;-145.71;100.00;60690.53;5010845;28;20528;-83
2021/08/06 00:27:39;;;;;;;10.10;4.57;;;;;;;-145.71;100.00;60690.53;4992994;28;20057;-83
2021/08/06 00:30:05;;;;;;;11.30;4.60;;;;;;;-145.71;100.00;60690.53;5010480;28;20030;-83
2021/08/06 00:32:30;;;;;;;10.18;4.60;;;;;;;-145.71;100.00;60690.53;5011972;28;20077;-84
2021/08/06 00:34:56;;;;;;;6.88;4.20;;;;;;;-145.71;100.00;60690.53;5015237;28;20473;-84
2021/08/06 00:37:22;;;;;;;7.38;4.40;;;;;;;-145.71;100.00;60690.53;5017572;28;20037;-84
2021/08/06 00:39:47;;;;;;;10.85;4.95;;;;;;;-145.71;100.00;60690.53;4998830;28;20025;-84
2021/08/06 00:42:13;;;;;;;13.32;5.30;;;;;;;-145.71;100.00;60690.53;4997630;28;20057;-83
2021/08/06 00:44:38;;;;;;;11.20;4.82;;;;;;;-145.71;100.00;60690.53;5015275;28;20029;-83
2021/08/06 00:47:03;;;;;;;8.75;4.32;;;;;;;-145.71;100.00;60690.53;4996520;28;20033;-83
2021/08/06 00:49:29;;;;;;;8.35;4.82;;;;;;;-145.71;100.00;60690.53;4997126;28;20030;-83
2021/08/06 00:51:54;;;;;;;9.32;4.47;;;;;;;-145.71;100.00;60690.53;4996398;28;20026;-83
2021/08/06 00:54:20;;;;;;;7.53;4.00;;;;;;;-145.71;100.00;60690.53;4996077;28;20038;-83
2021/08/06 00:56:49;;;;;;;11.73;4.97;;;;;;;-145.71;100.00;60690.53;5013878;28;20033;-82
2021/08/06 00:59:14;;;;;;;9.63;4.55;;;;;;;-145.71;100.00;60690.53;4995766;28;20397;-83
2021/08/06 01:01:40;;;;;;;9.25;4.53;;;;;;;-145.71;100.00;60690.53;4995607;28;20033;-83
2021/08/06 01:04:11;;;;;;;7.65;4.90;;;;;;;-145.71;100.00;60690.53;5016149;28;20025;-83
2021/08/06 01:06:50;;;;;;;9.98;4.25;;;;;;;-145.71;100.00;60690.53;5016650;28;20025;-83
2021/08/06 01:09:44;;;;;;;9.68;4.30;;;;;;;-145.71;100.00;60690.53;4998737;28;20034;-83
2021/08/06 01:12:14;;;;;;;10.75;4.30;;;;;;;-145.71;100.00;60690.53;5014875;28;20021;-83
2021/08/06 01:14:41;;;;;;;10.10;5.00;;;;;;;-145.71;100.00;60690.53;5015023;28;20473;-83
2021/08/06 01:17:08;;;;;;;8.52;4.45;;;;;;;-145.71;100.00;60690.53;5014762;28;20033;-82
2021/08/06 01:19:36;;;;;;;12.50;4.78;;;;;;;-145.71;100.00;60690.53;5014194;28;20088;-82
2021/08/06 01:22:19;;;;;;;9.90;4.35;;;;;;;-145.71;100.00;60690.53;5013582;28;20076;-82
2021/08/06 01:25:09;;;;;;;8.98;4.65;;;;;;;-145.71;100.00;60690.53;4995346;28;20042;-82
2021/08/06 01:27:36;;;;;;;11.93;4.95;;;;;;;-145.71;100.00;60690.53;4998824;28;20107;-82
2021/08/06 01:30:04;;;;;;;11.57;4.18;;;;;;;-145.71;100.00;60690.53;5016485;28;20026;-84
2021/08/06 01:32:31;;;;;;;10.38;4.60;;;;;;;-145.71;100.00;60690.53;4997714;28;20032;-83
2021/08/06 01:34:56;;;;;;;6.22;4.40;;;;;;;-145.71;100.00;60690.53;4997303;28;20028;-83
2021/08/06 01:37:21;;;;;;;11.00;4.47;;;;;;;-145.71;100.00;60690.53;5014131;28;20022;-82
2021/08/06 01:39:47;;;;;;;9.38;4.72;;;;;;;-145.71;100.00;60690.53;5014109;28;20041;-82
2021/08/06 01:42:34;;;;;;;11.70;4.10;;;;;;;-145.71;100.00;60690.53;5013843;28;20021;-83
2021/08/06 01:44:59;;;;;;;11.85;4.75;;;;;;;-145.71;100.00;60690.53;5013008;28;20061;-84
2021/08/06 01:47:46;;;;;;;11.52;4.75;;;;;;;-145.71;100.00;60690.53;5013145;28;20111;-83
2021/08/06 01:50:14;;;;;;;9.65;4.13;;;;;;;-145.71;100.00;60690.53;5013367;28;20512;-82
2021/08/06 01:52:48;;;;;;;9.48;4.40;;;;;;;-145.71;100.00;60690.53;5013072;28;20025;-83
2021/08/06 01:55:15;;;;;;;8.10;4.45;;;;;;;-145.71;100.00;60690.53;5013107;28;20048;-83
2021/08/06 01:57:43;;;;;;;8.57;4.88;;;;;;;-145.71;100.00;60690.53;5012776;28;20049;-83
2021/08/06 02:00:09;;;;;;;8.85;5.05;;;;;;;-145.71;100.00;60690.53;5016516;28;20032;-83
2021/08/06 02:03:30;;;;;;;8.23;4.65;;;;;;;-145.71;100.00;60690.53;4981960;28;20021;-84
2021/08/06 02:05:56;;;;;;;10.77;4.72;;;;;;;-145.71;100.00;60690.53;4997326;28;20044;-83
2021/08/06 02:08:21;;;;;;;11.43;4.55;;;;;;;-145.71;100.00;60690.53;5014634;28;20090;-83
2021/08/06 02:10:47;;;;;;;8.75;5.07;;;;;;;-145.71;100.00;60690.53;5014485;28;20076;-83
2021/08/06 02:13:13;;;;;;;9.15;4.30;;;;;;;-145.71;100.00;60690.53;5013184;28;20493;-83
2021/08/06 02:15:42;;;;;;;11.35;4.78;;;;;;;-145.71;100.00;60690.53;5012850;28;20030;-82
2021/08/06 02:18:11;;;;;;;11.68;5.47;;;;;;;-145.71;100.00;60690.53;5012113;28;20033;-83
2021/08/06 02:20:37;;;;;;;11.25;5.05;;;;;;;-145.71;100.00;60690.53;5012332;28;20026;-83
2021/08/06 02:23:06;;;;;;;9.25;4.28;;;;;;;-145.71;100.00;60690.53;5012667;28;20103;-83
2021/08/06 02:25:33;;;;;;;8.30;3.95;;;;;;;-145.71;100.00;60690.53;5014417;28;20034;-83
2021/08/06 02:28:00;;;;;;;11.82;4.07;;;;;;;-145.71;100.00;60690.53;5016462;28;20033;-83
2021/08/06 02:30:29;;;;;;;10.52;4.20;;;;;;;-145.71;100.00;60690.53;5014933;28;20034;-83
2021/08/06 02:32:55;;;;;;;6.88;4.00;;;;;;;-145.71;100.00;60690.53;4996136;28;20488;-84
2021/08/06 02:35:21;;;;;;;7.20;4.15;;;;;;;-145.71;100.00;60690.53;5012876;28;20505;-83
2021/08/06 02:37:48;;;;;;;6.57;3.63;;;;;;;-145.71;100.00;60690.53;5012301;28;20112;-82
2021/08/06 02:40:14;;;;;;;8.30;4.88;;;;;;;-145.71;100.00;60690.53;4994379;28;20061;-83
2021/08/06 02:42:40;;;;;;;14.70;4.22;;;;;;;-145.71;100.00;60690.53;5012937;28;20034;-83
2021/08/06 02:45:08;;;;;;;7.88;4.82;;;;;;;-145.71;100.00;60690.53;4995749;28;20025;-83
2021/08/06 02:47:33;;;;;;;5.78;3.40;;;;;;;-145.71;100.00;60690.53;5012575;28;20040;-83
2021/08/06 02:49:59;;;;;;;11.27;4.13;;;;;;;-145.71;100.00;60690.53;5013890;28;20093;-83
2021/08/06 02:52:24;;;;;;;10.73;5.53;;;;;;;-145.71;100.00;60690.53;5016021;28;20044;-83
2021/08/06 02:54:49;;;;;;;11.85;5.07;;;;;;;-145.71;100.00;60690.53;5014179;28;20026;-83
2021/08/06 02:57:15;;;;;;;12.25;4.82;;;;;;;-145.71;100.00;60690.53;5012582;28;20069;-83
2021/08/06 02:59:40;;;;;;;6.03;3.72;;;;;;;-145.71;100.00;60690.53;4995112;28;20029;-83
2021/08/06 03:02:06;;;;;;;8.68;4.65;;;;;;;-145.71;100.00;60690.53;5012518;28;20026;-83
2021/08/06 03:04:31;;;;;;;12.38;4.63;;;;;;;-145.71;100.00;60690.53;5012188;28;20434;-83
2021/08/06 03:06:56;;;;;;;8.95;3.90;;;;;;;-145.71;100.00;60690.53;4994625;28;20371;-83
2021/08/06 03:09:22;;;;;;;8.95;3.95;;;;;;;-145.71;100.00;60690.53;5013271;28;20044;-82
2021/08/06 03:11:47;;;;;;;7.30;3.67;;;;;;;-145.71;100.00;60690.53;5012726;28;20061;-83
2021/08/06 03:14:12;;;;;;;7.60;4.13;;;;;;;-145.71;100.00;60690.53;4994724;28;20069;-83
2021/08/06 03:16:38;;;;;;;9.38;4.28;;;;;;;-145.71;100.00;60690.53;4996378;28;20030;-83
2021/08/06 03:19:03;;;;;;;6.40;4.60;;;;;;;-145.71;100.00;60690.53;4996491;28;20497;-83
2021/08/06 03:21:28;;;;;;;6.50;4.15;;;;;;;-145.71;100.00;60690.53;5014102;28;20085;-81
2021/08/06 03:23:54;;;;;;;7.90;4.75;;;;;;;-145.71;100.00;60690.53;4995524;28;20104;-80
2021/08/06 03:26:19;;;;;;;5.97;4.38;;;;;;;-145.71;100.00;60690.53;5013310;28;20037;-80
2021/08/06 03:28:45;;;;;;;5.50;4.18;;;;;;;-145.71;100.00;60690.53;4994658;28;20163;-83
2021/08/06 03:31:10;;;;;;;8.30;4.10;;;;;;;-145.71;100.00;60690.53;5012492;28;20485;-83
2021/08/06 03:33:35;;;;;;;7.43;4.28;;;;;;;-145.71;100.00;60690.53;5012853;28;20537;-83
2021/08/06 03:36:00;;;;;;;12.07;4.78;;;;;;;-145.71;100.00;60690.53;5012301;28;20056;-83
2021/08/06 03:38:26;;;;;;;11.85;4.55;;;;;;;-145.71;100.00;60690.53;5011721;28;20104;-82
2021/08/06 03:40:53;;;;;;;6.70;3.88;;;;;;;-145.71;100.00;60690.53;5012466;28;20022;-82
2021/08/06 03:43:18;;;;;;;7.47;4.25;;;;;;;-145.71;100.00;60690.53;5013949;28;20040;-83
2021/08/06 03:45:44;;;;;;;7.63;3.75;;;;;;;-145.71;100.00;60690.53;5013274;28;20695;-83
2021/08/06 03:48:10;;;;;;;9.23;4.20;;;;;;;-145.71;100.00;60690.53;5012639;28;20112;-83
2021/08/06 03:50:36;;;;;;;7.55;3.88;;;;;;;-145.71;100.00;60690.53;5012672;28;20393;-83
2021/08/06 03:53:03;;;;;;;7.35;3.75;;;;;;;-145.71;100.00;60690.53;5011977;28;20038;-83
2021/08/06 03:55:28;;;;;;;7.80;4.55;;;;;;;-145.71;100.00;60690.53;5013025;28;20045;-82
2021/08/06 03:57:55;;;;;;;7.85;4.13;;;;;;;-145.71;100.00;60690.53;4994132;28;20433;-82
2021/08/06 04:00:30;;;;;;;7.70;4.28;;;;;;;-145.71;100.00;60690.53;5011493;28;20044;-82
2021/08/06 04:02:55;;;;;;;11.23;4.22;;;;;;;-145.71;100.00;60690.53;4993119;28;20022;-82
2021/08/06 04:05:21;;;;;;;7.70;4.03;;;;;;;-145.71;100.00;60690.53;5010976;28;20477;-83
2021/08/06 04:07:48;;;;;;;6.38;3.40;;;;;;;-145.71;100.00;60690.53;5012173;28;20033;-83
2021/08/06 04:10:15;;;;;;;10.35;4.40;;;;;;;-145.71;100.00;60690.53;5013667;28;20034;-83
2021/08/06 04:12:40;;;;;;;6.15;3.58;;;;;;;-145.71;100.00;60690.53;5013406;28;20034;-83
2021/08/06 04:15:07;;;;;;;9.98;4.30;;;;;;;-145.71;100.00;60690.53;5013244;28;20105;-83
2021/08/06 04:17:32;;;;;;;7.60;3.80;;;;;;;-145.71;100.00;60690.53;4993726;28;20441;-83
2021/08/06 04:19:57;;;;;;;9.23;3.45;;;;;;;-145.71;100.00;60690.53;5011465;28;20045;-83
2021/08/06 04:22:23;;;;;;;10.43;3.90;;;;;;;-145.71;100.00;60690.53;4993263;28;20470;-83
2021/08/06 04:24:48;;;;;;;9.52;3.63;;;;;;;-145.71;100.00;60690.53;5011137;28;20037;-83
2021/08/06 04:27:14;;;;;;;8.68;3.70;;;;;;;-145.71;100.00;60690.53;4993118;28;20080;-83
2021/08/06 04:29:39;;;;;;;7.47;3.40;;;;;;;-145.71;100.00;60690.53;5010676;28;20033;-82
2021/08/06 04:32:05;;;;;;;7.85;3.63;;;;;;;-145.71;100.00;60690.53;4993304;28;20783;-83
2021/08/06 04:34:30;;;;;;;8.82;3.47;;;;;;;-145.71;100.00;60690.53;5013507;28;20029;-83
2021/08/06 04:36:55;;;;;;;9.27;3.70;;;;;;;-145.71;100.00;60690.53;4995088;28;20120;-84
2021/08/06 04:39:21;;;;;;;9.68;3.83;;;;;;;-145.71;100.00;60690.53;5014038;28;20044;-83
2021/08/06 04:41:49;;;;;;;9.35;3.25;;;;;;;-145.71;100.00;60690.53;5011000;28;20528;-83
2021/08/06 04:44:15;;;;;;;13.23;3.67;;;;;;;-145.71;100.00;60690.53;4992870;28;20026;-83
2021/08/06 04:46:40;;;;;;;6.97;4.03;;;;;;;-145.71;100.00;60690.53;5010386;28;20044;-83
2021/08/06 04:49:05;;;;;;;6.53;3.10;;;;;;;-145.71;100.00;60690.53;5010474;28;20779;-83
2021/08/06 04:51:31;;;;;;;6.47;3.45;;;;;;;-145.71;100.00;60690.53;5010071;28;20447;-82
2021/08/06 04:53:56;;;;;;;8.98;3.63;;;;;;;-145.71;100.00;60690.53;4993897;28;20494;-83
2021/08/06 04:56:21;;;;;;;8.93;3.55;;;;;;;-145.71;100.00;60690.53;5012905;28;20038;-83
2021/08/06 04:58:47;;;;;;;8.82;3.90;;;;;;;-145.71;100.00;60690.53;5011915;28;20417;-83
2021/08/06 05:01:12;;;;;;;8.50;4.75;;;;;;;-145.71;100.00;60690.53;5011060;28;20505;-83
2021/08/06 05:03:37;;;;;;;7.03;4.07;;;;;;;-145.71;100.00;60690.53;5010655;28;20038;-82
2021/08/06 05:06:03;;;;;;;8.55;4.40;;;;;;;-145.71;100.00;60690.53;5010477;28;20077;-83
2021/08/06 05:08:28;;;;;;;9.38;3.95;;;;;;;-145.71;100.00;60690.53;5010190;28;20489;-83
2021/08/06 05:10:53;;;;;;;10.45;4.60;;;;;;;-145.71;100.00;60690.53;4991954;28;20033;-82
2021/08/06 05:13:18;;;;;;;7.45;3.83;;;;;;;-145.71;100.00;60690.53;4992275;28;20080;-80
2021/08/06 05:15:44;;;;;;;10.05;4.63;;;;;;;-145.71;100.00;60690.53;5009740;28;20072;-80
2021/08/06 05:18:09;;;;;;;10.77;4.20;;;;;;;-145.71;100.00;60690.53;5010361;28;20022;-83
2021/08/06 05:20:35;;;;;;;13.02;4.30;;;;;;;-145.71;100.00;60690.53;5015782;28;20057;-83
2021/08/06 05:23:00;;;;;;;11.80;3.95;;;;;;;-145.71;100.00;60690.53;5015470;28;20128;-83
2021/08/06 05:25:26;;;;;;;8.32;4.45;;;;;;;-145.71;100.00;60690.53;4996895;28;20036;-83
2021/08/06 05:27:51;;;;;;;6.55;4.22;;;;;;;-145.71;100.00;60690.53;5014365;28;20034;-83
2021/08/06 05:30:21;;;;;;;9.77;4.40;;;;;;;-145.71;100.00;60690.53;4996426;28;20056;-83
2021/08/06 05:32:47;;;;;;;7.45;4.30;;;;;;;-145.71;100.00;60690.53;5013024;28;20036;-83
2021/08/06 05:35:12;;;;;;;8.32;4.35;;;;;;;-145.71;100.00;60690.53;5013443;28;20030;-83
2021/08/06 05:37:37;;;;;;;7.80;4.20;;;;;;;-145.71;100.00;60690.53;4995717;28;20022;-83
2021/08/06 05:40:04;;;;;;;10.93;3.90;;;;;;;-145.71;100.00;60690.53;5013512;28;20030;-83
2021/08/06 05:42:29;;;;;;;8.63;3.35;;;;;;;-145.71;100.00;60690.53;5012815;28;20503;-82
2021/08/06 05:44:54;;;;;;;12.32;3.92;;;;;;;-145.71;100.00;60690.53;5013286;28;20034;-83
2021/08/06 05:47:20;;;;;;;8.85;3.75;;;;;;;-145.71;100.00;60690.53;5015011;28;20029;-84
2021/08/06 05:49:45;;;;;;;6.80;3.28;;;;;;;-145.71;100.00;60690.53;5016435;28;20030;-83
2021/08/06 05:52:10;;;;;;;8.27;3.70;;;;;;;-145.71;100.00;60690.53;5015735;28;20193;-83
2021/08/06 05:54:36;;;;;;;7.65;3.65;;;;;;;-145.71;100.00;60690.53;5014899;28;20397;-83
2021/08/06 05:57:01;;;;;;;5.60;4.07;;;;;;;-145.71;100.00;60690.53;5013940;28;20539;-82
2021/08/06 05:59:26;;;;;;;6.50;3.33;;;;;;;-145.71;100.00;60690.53;5012987;28;20033;-82
2021/08/06 06:01:52;;;;;;;6.13;3.20;;;;;;;-145.71;100.00;60690.53;5012575;28;20030;-83
2021/08/06 06:04:17;;;;;;;6.07;3.60;;;;;;;-145.71;100.00;60690.53;4997627;28;20033;-83
2021/08/06 06:06:42;;;;;;;6.65;3.35;;;;;;;-145.71;100.00;60690.53;5015552;28;20029;-83
2021/08/06 06:09:08;;;;;;;4.57;3.30;;;;;;;-145.71;100.00;60690.53;5015364;28;20104;-83
2021/08/06 06:11:33;;;;;;;6.75;3.40;;;;;;;-145.71;100.00;60690.53;5015602;28;20026;-82
2021/08/06 06:14:00;;;;;;;8.68;3.80;;;;;;;-145.71;100.00;60690.53;5014477;28;20061;-83
2021/08/06 06:16:26;;;;;;;7.53;3.65;;;;;;;-145.71;100.00;60690.53;5015213;28;20477;-83
2021/08/06 06:18:52;;;;;;;8.40;3.75;;;;;;;-145.71;100.00;60690.53;4995513;28;20033;-83
2021/08/06 06:21:17;;;;;;;8.02;3.72;;;;;;;-145.71;100.00;60690.53;5012462;28;20489;-83
2021/08/06 06:23:42;;;;;;;7.78;3.83;;;;;;;-145.71;100.00;60690.53;4994570;28;20062;-82
2021/08/06 06:26:08;;;;;;;6.82;4.03;;;;;;;-145.71;100.00;60690.53;4994669;28;20493;-82
2021/08/06 06:28:34;;;;;;;5.55;3.40;;;;;;;-145.71;100.00;60690.53;4993969;28;20052;-83
2021/08/06 06:30:59;;;;;;;4.13;3.22;;;;;;;-145.71;100.00;60690.53;5012157;28;20038;-84
2021/08/06 06:33:25;;;;;;;8.00;4.22;;;;;;;-145.71;100.00;60690.53;5011587;28;20087;-83
2021/08/06 06:35:50;;;;;;;6.63;3.42;;;;;;;-145.71;100.00;60690.53;5012219;28;20029;-83
2021/08/06 06:38:16;;;;;;;6.18;4.35;;;;;;;-145.71;100.00;60690.53;5011027;28;20037;-83
2021/08/06 06:40:41;;;;;;;7.07;4.18;;;;;;;-145.71;100.00;60690.53;5015865;28;20025;-83
2021/08/06 06:43:07;;;;;;;6.80;3.75;;;;;;;-145.71;100.00;60690.53;5000739;28;20021;-83
2021/08/06 06:45:32;;;;;;;7.00;4.03;;;;;;;-145.71;100.00;60690.53;5021701;28;20124;-83
2021/08/06 06:47:57;;;;;;;6.97;3.75;;;;;;;-145.71;100.00;60690.53;5020752;28;20026;-83
2021/08/06 06:50:26;;;;;;;5.95;3.50;;;;;;;-145.71;100.00;60690.53;5011084;28;20773;-83
2021/08/06 06:52:51;;;;;;;11.18;3.88;;;;;;;-145.71;100.00;60690.53;5011350;28;20030;-83
2021/08/06 06:55:17;;;;;;;6.28;3.70;;;;;;;-145.71;100.00;60690.53;5011738;28;20104;-84
2021/08/06 06:57:49;;;;;;;8.05;4.00;;;;;;;-145.71;100.00;60690.53;5011234;28;20507;-84
2021/08/06 07:00:14;;;;;;;7.38;3.65;;;;;;;-145.71;100.00;60690.53;5006092;28;20037;-83
2021/08/06 07:02:40;;;;;;;6.00;3.88;;;;;;;-145.71;100.00;60690.53;5013707;28;20464;-83
2021/08/06 07:05:07;;;;;;;5.38;3.83;;;;;;;-145.71;100.00;60690.53;4995228;28;20091;-83
2021/08/06 07:07:32;;;;;;;7.68;3.42;;;;;;;-145.71;100.00;60690.53;5022194;28;20034;-84
2021/08/06 07:09:57;;;;;;;6.65;3.75;;;;;;;-145.71;100.00;60690.53;4996318;28;20049;-84
2021/08/06 07:12:22;;;;;;;6.22;3.65;;;;;;;-145.71;100.00;60690.53;5009361;28;20026;-83
2021/08/06 07:14:48;;;;;;;4.00;3.05;;;;;;;-145.71;100.00;60690.53;5015465;28;20118;-83
2021/08/06 07:17:13;;;;;;;8.20;3.75;;;;;;;-145.71;100.00;60690.53;5032480;28;20036;-84
2021/08/06 07:19:38;;;;;;;5.00;3.47;;;;;;;-145.71;100.00;60690.53;5014300;28;20079;-84
2021/08/06 07:22:04;;;;;;;6.55;4.07;;;;;;;-145.71;100.00;60690.53;5019072;28;20038;-82
2021/08/06 07:24:29;;;;;;;6.28;3.63;;;;;;;-145.71;100.00;60690.53;5026463;28;20041;-84
2021/08/06 07:26:54;;;;;;;3.95;3.25;;;;;;;-145.71;100.00;60690.53;4995090;28;20026;-83
2021/08/06 07:29:20;;;;;;;4.38;3.80;;;;;;;-145.71;100.00;60690.53;5023253;28;20068;-83
2021/08/06 07:31:45;;;;;;;5.60;3.50;;;;;;;-145.71;100.00;60690.53;5018116;28;20022;-84
2021/08/06 07:34:11;;;;;;;4.47;3.22;;;;;;;-145.71;100.00;60690.53;5006694;28;20040;-83
2021/08/06 07:36:36;;;;;;;7.95;3.42;;;;;;;-145.71;100.00;60690.53;5012731;28;20025;-83
2021/08/06 07:39:02;;;;;;;7.10;3.17;;;;;;;-145.71;100.00;60690.53;5024390;28;20026;-83
2021/08/06 07:41:28;;;;;;;4.88;3.13;;;;;;;-145.71;100.00;60690.53;4996095;28;20028;-83
2021/08/06 07:43:53;;;;;;;5.53;3.45;;;;;;;-145.71;100.00;60690.53;5026772;28;20029;-84
2021/08/06 07:46:18;;;;;;;7.60;2.83;;;;;;;-145.71;100.00;60690.53;5014933;28;20026;-84
2021/08/06 07:48:43;;;;;;;6.75;2.60;;;;;;;-145.71;100.00;60690.53;5007377;28;20033;-83
2021/08/06 07:51:09;;;;;;;4.32;3.10;;;;;;;-145.71;100.00;60690.53;4995801;28;20024;-84
2021/08/06 07:53:34;;;;;;;3.10;2.70;;;;;;;-145.71;100.00;60690.53;5022791;28;20040;-84
2021/08/06 07:55:59;;;;;;;6.82;2.90;;;;;;;-145.71;100.00;60690.53;5002958;28;20030;-83
2021/08/06 07:58:25;;;;;;;5.50;2.78;;;;;;;-145.71;100.00;60690.53;5014928;28;20794;-84
2021/08/06 08:00:50;;;;;;;5.05;2.70;;;;;;;-145.71;100.00;60690.53;5026202;28;20076;-84
2021/08/06 08:03:15;;;;;;;3.72;2.70;;;;;;;-145.71;100.00;60690.53;4996599;28;20037;-83
2021/08/06 08:05:41;;;;;;;3.83;3.00;;;;;;;-145.71;100.00;60690.53;5018777;28;20128;-83
2021/08/06 08:08:06;;;;;;;3.75;3.10;;;;;;;-145.71;100.00;60690.53;5019467;28;20025;-80
2021/08/06 08:10:32;;;;;;;3.80;2.95;;;;;;;-145.71;100.00;60690.53;4993791;28;20026;-81
2021/08/06 08:12:57;;;;;;;3.63;2.90;;;;;;;-145.71;100.00;60690.53;5024328;28;20029;-81
2021/08/06 08:15:23;;;;;;;3.63;2.78;;;;;;;-145.71;100.00;60690.53;4995209;28;20034;-81
2021/08/06 08:17:49;;;;;;;5.97;2.88;;;;;;;-145.71;100.00;60690.53;5023225;28;20038;-82
2021/08/06 08:20:15;;;;;;;4.40;2.90;;;;;;;-145.71;100.00;60690.53;5021981;28;20032;-82
2021/08/06 08:22:40;;;;;;;5.95;3.55;;;;;;;-145.71;100.00;60690.53;5012416;28;20084;-82
2021/08/06 08:25:07;;;;;;;7.30;3.53;;;;;;;-145.71;100.00;60690.53;5018692;28;20464;-82
2021/08/06 08:27:33;;;;;;;5.15;2.72;;;;;;;-145.71;100.00;60690.53;5026259;28;20057;-81
2021/08/06 08:29:59;;;;;;;2.35;2.15;;;;;;;-145.71;100.00;60690.53;5020523;28;20103;-81
2021/08/06 08:32:24;;;;;;;4.18;2.22;;;;;;;-145.71;100.00;60690.53;5013253;28;20034;-81
2021/08/06 08:34:50;;;;;;;3.65;2.13;;;;;;;-145.71;100.00;60690.53;4991923;28;20033;-81
2021/08/06 08:37:15;;;;;;;6.68;2.03;;;;;;;-145.71;100.00;60690.53;5022584;28;20057;-81
2021/08/06 08:39:42;;;;;;;2.65;2.20;;;;;;;-145.71;100.00;60690.53;5001427;28;20492;-82
2021/08/06 08:42:07;;;;;;;4.15;2.15;;;;;;;-145.71;100.00;60690.53;5022155;28;20057;-82
2021/08/06 08:44:34;;;;;;;5.05;2.25;;;;;;;-145.71;100.00;60690.53;4995803;28;20251;-82
2021/08/06 08:47:01;;;;;;;3.13;2.42;;;;;;;-145.71;100.00;60690.53;5017551;28;20644;-81
2021/08/06 08:49:30;;;;;;;2.40;2.20;;;;;;;-145.71;100.00;60690.53;5024718;28;20026;-81
2021/08/06 08:51:56;;;;;;;7.90;2.80;;;;;;;-145.71;100.00;60690.53;5013766;28;20022;-82
2021/08/06 08:54:26;;;;;;;4.88;2.47;;;;;;;-145.71;100.00;60690.53;5026903;28;20080;-82
2021/08/06 08:56:51;;;;;;;5.45;2.78;;;;;;;-145.71;100.00;60690.53;5019151;28;20140;-82
2021/08/06 08:59:17;;;;;;;3.35;2.42;;;;;;;-145.71;100.00;60690.53;5032052;28;20075;-82
2021/08/06 09:01:43;;;;;;;5.65;2.97;;;;;;;-145.71;100.00;60690.53;5025921;28;20026;-82
2021/08/06 09:04:24;;;;;;;2.55;2.35;;;;;;;-145.71;100.00;60690.53;5027569;28;20021;-82
2021/08/06 09:06:50;;;;;;;3.97;3.00;;;;;;;-145.71;100.00;60690.53;5033814;28;20034;-82
2021/08/06 09:09:21;;;;;;;4.55;2.78;;;;;;;-145.71;100.00;60690.53;5001400;28;20044;-82
2021/08/06 09:11:47;;;;;;;;;;;;;;;-145.71;100.00;60690.53;5024465;28;20076;-82
2021/08/06 09:14:25;;;;;;;5.63;2.90;;;;;;;-145.71;100.00;60690.53;5026150;28;19913;-82
2021/08/06 09:17:06;;;;;;;9.07;3.05;;;;;;;-145.71;100.00;60690.53;5017593;28;20033;-82
2021/08/06 09:19:41;;;;;;;4.30;2.67;;;;;;;-145.71;100.00;60690.53;5023884;28;20051;-81
2021/08/06 09:22:24;;;;;;;4.03;2.53;;;;;;;-145.71;100.00;60690.53;5022060;28;20041;-82
2021/08/06 09:24:57;;;;;;;6.05;3.67;;;;;;;-145.71;100.00;60690.53;5013407;28;20482;-81
2021/08/06 09:27:23;;;;;;;2.75;2.55;;;;;;;-145.71;100.00;60690.53;5023098;28;20038;-82
2021/08/06 09:29:49;;;;;;;4.45;2.70;;;;;;;-145.71;100.00;60690.53;5020138;28;20075;-82
2021/08/06 09:32:14;;;;;;;7.38;3.00;;;;;;;-145.71;100.00;60690.53;5005218;28;20461;-82
2021/08/06 09:34:42;;;;;;;4.35;2.65;;;;;;;-145.71;100.00;60690.53;5015422;28;20378;-82
2021/08/06 09:37:11;;;;;;;5.60;2.50;;;;;;;-145.71;100.00;60690.53;5019459;28;20041;-82
2021/08/06 09:39:48;;;;;;;3.80;2.60;;;;;;;-145.71;100.00;60690.53;5020888;28;20025;-82
2021/08/06 09:42:23;;;;;;;6.15;2.85;;;;;;;-145.71;100.00;60690.53;4999610;28;20109;-82
2021/08/06 09:45:08;;;;;;;4.90;2.70;;;;;;;-145.71;100.00;60690.53;5026412;28;20029;-82
2021/08/06 09:47:36;;;;;;;5.35;2.58;;;;;;;-145.71;100.00;60690.53;5017984;28;20037;-82
2021/08/06 09:50:06;;;;;;;5.90;2.83;;;;;;;-145.71;100.00;60690.53;5029486;28;20028;-82
2021/08/06 09:52:37;;;;;;;5.57;2.65;;;;;;;-145.71;100.00;60690.53;4995789;28;20031;-81
2021/08/06 09:55:05;;;;;;;8.75;2.67;;;;;;;-145.71;100.00;60690.53;5007762;28;20072;-82
2021/08/06 09:57:31;;;;;;;5.75;3.00;;;;;;;-145.71;100.00;60690.53;5016677;28;20148;-82
2021/08/06 09:59:58;;;;;;;3.72;2.72;;;;;;;-145.71;100.00;60690.53;5023400;28;20043;-82
2021/08/06 10:02:27;;;;;;;4.47;2.70;;;;;;;-145.71;100.00;60690.53;5009749;28;20030;-82
2021/08/06 10:05:13;;;;;;;5.20;2.78;;;;;;;-145.71;100.00;60690.53;5016978;28;20029;-82
2021/08/06 10:07:44;;;;;;;8.07;2.85;;;;;;;-145.71;100.00;60690.53;5022116;28;20033;-81
2021/08/06 10:10:14;;;;;;;8.68;2.83;;;;;;;-145.71;100.00;60690.53;5022771;28;20025;-82
2021/08/06 10:12:39;;;;;;;5.13;2.83;;;;;;;-145.71;100.00;60690.53;5013218;28;20050;-82
2021/08/06 10:15:06;;;;;;;4.70;2.40;;;;;;;-145.71;100.00;60690.53;5026119;28;20143;-81
2021/08/06 10:17:33;;;;;;;4.15;2.97;;;;;;;-145.71;100.00;60690.53;4998183;28;20366;-81
2021/08/06 10:19:58;;;;;;;3.33;2.33;;;;;;;-145.71;100.00;60690.53;5018285;28;20025;-81
2021/08/06 10:22:24;;;;;;;6.63;3.10;;;;;;;-145.71;100.00;60690.53;5004969;28;20176;-82
2021/08/06 10:24:52;;;;;;;4.10;2.80;;;;;;;-145.71;100.00;60690.53;5012198;28;20025;-81
2021/08/06 10:27:27;;;;;;;4.70;2.55;;;;;;;-145.71;100.00;60690.53;5015856;28;20025;-82
2021/08/06 10:30:00;;;;;;;8.05;2.80;;;;;;;-145.71;100.00;60690.53;5020980;28;20092;-82
2021/08/06 10:32:26;;;;;;;6.85;3.17;;;;;;;-145.71;100.00;60690.53;5004890;28;20108;-82
2021/08/06 10:35:07;;;;;;;9.00;2.65;;;;;;;-145.71;100.00;60690.53;5025572;28;20040;-82
2021/08/06 10:37:54;;;;;;;9.20;2.38;;;;;;;-145.71;100.00;60690.53;4998920;28;20504;-82
2021/08/06 10:40:32;;;;;;;4.75;2.53;;;;;;;-145.71;100.00;60690.53;4996747;28;20045;-82
2021/08/06 10:43:18;;;;;;;3.67;2.60;;;;;;;-145.71;100.00;60690.53;5007007;28;20552;-82
2021/08/06 10:45:51;;;;;;;2.80;2.38;;;;;;;-145.71;100.00;60690.53;5016822;28;20075;-81
2021/08/06 10:48:34;;;;;;;5.85;2.67;;;;;;;-145.71;100.00;60690.53;5015146;28;20429;-82
2021/08/06 10:51:12;;;;;;;4.95;2.78;;;;;;;-145.71;100.00;60690.53;5024636;28;20466;-81
2021/08/06 10:54:08;;;;;;;2.75;2.28;;;;;;;-145.71;100.00;60690.53;5017258;28;20062;-82
2021/08/06 10:56:36;;;;;;;3.15;2.65;;;;;;;-145.71;100.00;60690.53;5000206;28;20080;-82
2021/08/06 10:59:13;;;;;;;2.85;2.30;;;;;;;-145.71;100.00;60690.53;5010294;28;20036;-82
2021/08/06 11:01:45;;;;;;;3.63;2.35;;;;;;;-145.71;100.00;60690.53;5001129;28;20067;-82
2021/08/06 11:04:13;;;;;;;2.55;2.22;;;;;;;-145.71;100.00;60690.53;5017464;28;20025;-82
2021/08/06 11:06:52;;;;;;;4.60;2.63;;;;;;;-145.71;100.00;60690.53;5007623;28;20617;-82
2021/08/06 11:09:38;;;;;;;5.82;2.53;;;;;;;-145.71;100.00;60690.53;5014561;28;20083;-82
2021/08/06 11:12:06;;;;;;;3.30;3.00;;;;;;;-145.71;100.00;60690.53;5016138;28;20502;-82